createdAt,value
2018-04-27T00:00:39.536Z,99808
2018-04-27T00:03:08.413Z,99810
2018-04-27T00:05:36.550Z,99804
2018-04-27T00:08:04.719Z,99808
2018-04-27T00:10:32.832Z,99800
2018-04-27T00:13:00.936Z,99803
2018-04-27T00:15:29.053Z,99805
2018-04-27T00:17:57.161Z,99812
2018-04-27T00:20:25.268Z,99819
2018-04-27T00:22:53.405Z,99808
2018-04-27T00:25:21.565Z,99805
2018-04-27T00:27:49.689Z,99796
2018-04-27T00:30:17.805Z,99806
2018-04-27T00:32:45.904Z,99790
2018-04-27T00:35:14.023Z,99796
2018-04-27T00:37:42.116Z,99787
2018-04-27T00:40:11.022Z,99787
2018-04-27T00:42:39.901Z,99784
2018-04-27T00:45:08.002Z,99785
2018-04-27T00:47:36.875Z,99781
2018-04-27T00:50:05.752Z,99775
2018-04-27T00:52:51.792Z,99784
2018-04-27T00:55:20.491Z,99781
2018-04-27T00:57:48.623Z,99777
2018-04-27T01:00:17.490Z,99781
2018-04-27T01:02:45.595Z,99781
2018-04-27T01:05:13.706Z,99783
2018-04-27T01:07:41.816Z,99788
2018-04-27T01:10:09.933Z,99788
2018-04-27T01:12:38.802Z,99783
2018-04-27T01:15:07.708Z,99778
2018-04-27T01:17:35.823Z,99783
2018-04-27T01:20:03.941Z,99782
2018-04-27T01:22:32.056Z,99771
2018-04-27T01:25:00.939Z,99768
2018-04-27T01:27:29.821Z,99767
2018-04-27T01:29:57.934Z,99769
2018-04-27T01:32:26.102Z,99782
2018-04-27T01:34:54.975Z,99777
2018-04-27T01:37:23.853Z,99772
2018-04-27T01:39:51.969Z,99772
2018-04-27T01:42:20.839Z,99768
2018-04-27T01:44:48.973Z,99768
2018-04-27T01:47:17.078Z,99774
2018-04-27T01:49:45.188Z,99774
2018-04-27T01:52:14.069Z,99774
2018-04-27T01:54:42.293Z,99785
2018-04-27T01:57:10.431Z,99779
2018-04-27T01:59:38.562Z,99781
2018-04-27T02:02:06.674Z,99777
2018-04-27T02:04:34.788Z,99780
2018-04-27T02:07:02.893Z,99784
2018-04-27T02:09:31.011Z,99780
2018-04-27T02:12:00.621Z,99785
2018-04-27T02:14:28.773Z,99774
2018-04-27T02:16:56.901Z,99779
2018-04-27T02:19:25.760Z,99777
2018-04-27T02:21:53.895Z,99780
2018-04-27T02:24:22.001Z,99769
2018-04-27T02:26:50.124Z,99771
2018-04-27T02:29:19.003Z,99773
2018-04-27T02:31:47.119Z,99775
2018-04-27T02:34:15.261Z,99779
2018-04-27T02:36:43.363Z,99779
2018-04-27T02:39:11.483Z,99780
2018-04-27T02:41:39.601Z,99775
2018-04-27T02:44:08.501Z,99773
2018-04-27T02:46:37.400Z,99773
2018-04-27T02:49:06.273Z,99769
2018-04-27T02:51:34.364Z,99773
2018-04-27T02:54:02.480Z,99765
2018-04-27T02:56:30.590Z,99762
2018-04-27T02:58:58.732Z,99765
2018-04-27T03:01:26.836Z,99763
2018-04-27T03:03:54.949Z,99768
2018-04-27T03:06:23.850Z,99761
2018-04-27T03:08:52.742Z,99761
2018-04-27T03:11:21.613Z,99762
2018-04-27T03:13:49.740Z,99750
2018-04-27T03:16:17.843Z,99746
2018-04-27T03:18:45.971Z,99750
2018-04-27T03:21:14.882Z,99743
2018-04-27T03:23:43.030Z,99748
2018-04-27T03:26:11.131Z,99750
2018-04-27T03:28:39.241Z,99751
2018-04-27T03:31:07.373Z,99761
2018-04-27T03:33:36.247Z,99765
2018-04-27T03:36:04.350Z,99756
2018-04-27T03:38:33.224Z,99758
2018-04-27T03:41:02.102Z,99760
2018-04-27T03:43:30.213Z,99762
2018-04-27T03:45:59.079Z,99759
2018-04-27T03:48:27.176Z,99765
2018-04-27T03:50:56.198Z,99752
2018-04-27T03:53:24.293Z,99749
2018-04-27T03:55:52.393Z,99749
2018-04-27T03:58:20.508Z,99756
2018-04-27T04:01:07.313Z,99755
2018-04-27T04:03:54.133Z,99749
2018-04-27T04:06:22.261Z,99758
2018-04-27T04:08:50.407Z,99750
2018-04-27T04:11:18.518Z,99740
2018-04-27T04:13:46.621Z,99746
2018-04-27T04:16:15.499Z,99742
2018-04-27T04:18:43.612Z,99757
2018-04-27T04:21:11.726Z,99756
2018-04-27T04:23:39.825Z,99752
2018-04-27T04:26:07.933Z,99764
2018-04-27T04:28:36.801Z,99762
2018-04-27T04:31:04.917Z,99765
2018-04-27T04:33:33.035Z,99760
2018-04-27T04:36:01.164Z,99754
2018-04-27T04:38:29.273Z,99759
2018-04-27T04:40:57.397Z,99752
2018-04-27T04:43:26.282Z,99757
2018-04-27T04:45:54.425Z,99754
2018-04-27T04:48:22.551Z,99763
2018-04-27T04:50:51.468Z,99756
2018-04-27T04:53:19.577Z,99759
2018-04-27T04:55:47.721Z,99753
2018-04-27T04:58:15.835Z,99761
2018-04-27T05:00:43.940Z,99767
2018-04-27T05:03:12.069Z,99764
2018-04-27T05:05:40.175Z,99760
2018-04-27T05:08:08.313Z,99771
2018-04-27T05:10:36.443Z,99769
2018-04-27T05:13:04.564Z,99772
2018-04-27T05:15:32.671Z,99770
2018-04-27T05:18:36.165Z,99771
2018-04-27T05:21:04.278Z,99772
2018-04-27T05:23:33.156Z,99771
2018-04-27T05:26:02.095Z,99772
2018-04-27T05:28:30.218Z,99777
2018-04-27T05:31:16.312Z,99773
2018-04-27T05:33:44.415Z,99774
2018-04-27T05:36:13.270Z,99777
2018-04-27T05:38:41.507Z,99778
2018-04-27T05:41:09.629Z,99770
2018-04-27T05:43:37.744Z,99777
2018-04-27T05:46:06.616Z,99775
2018-04-27T05:48:34.743Z,99770
2018-04-27T05:51:02.854Z,99771
2018-04-27T05:53:30.986Z,99758
2018-04-27T05:55:59.918Z,99762
2018-04-27T05:58:28.270Z,99759
2018-04-27T06:00:56.382Z,99759
2018-04-27T06:03:24.553Z,99762
2018-04-27T06:05:52.676Z,99761
2018-04-27T06:08:21.612Z,99752
2018-04-27T06:10:49.787Z,99752
2018-04-27T06:13:17.911Z,99756
2018-04-27T06:15:46.021Z,99757
2018-04-27T06:18:14.146Z,99756
2018-04-27T06:20:42.254Z,99757
2018-04-27T06:23:11.145Z,99748
2018-04-27T06:25:39.378Z,99748
2018-04-27T06:28:07.409Z,99742
2018-04-27T06:30:36.300Z,99742
2018-04-27T06:33:05.221Z,99740
2018-04-27T06:35:33.324Z,99733
2018-04-27T06:38:01.449Z,99730
2018-04-27T06:40:30.331Z,99730
2018-04-27T06:42:59.228Z,99726
2018-04-27T06:45:27.342Z,99726
2018-04-27T06:47:55.476Z,99720
2018-04-27T06:50:23.664Z,99717
2018-04-27T06:52:52.596Z,99719
2018-04-27T06:55:20.735Z,99712
2018-04-27T06:57:49.623Z,99716
2018-04-27T07:00:17.777Z,99712
2018-04-27T07:02:45.882Z,99715
2018-04-27T07:05:14.053Z,99709
2018-04-27T07:07:42.152Z,99719
2018-04-27T07:10:11.177Z,99710
2018-04-27T07:12:39.295Z,99710
2018-04-27T07:15:07.419Z,99718
2018-04-27T07:17:35.523Z,99714
2018-04-27T07:20:03.648Z,99714
2018-04-27T07:22:32.523Z,99714
2018-04-27T07:25:00.639Z,99712
2018-04-27T07:27:28.771Z,99716
2018-04-27T07:29:56.880Z,99712
2018-04-27T07:32:25.736Z,99719
2018-04-27T07:34:53.879Z,99713
2018-04-27T07:37:21.986Z,99712
2018-04-27T07:39:50.101Z,99722
2018-04-27T07:42:19.031Z,99719
2018-04-27T07:44:47.157Z,99716
2018-04-27T07:47:15.263Z,99712
2018-04-27T07:49:44.161Z,99712
2018-04-27T07:52:13.072Z,99710
2018-04-27T07:54:41.193Z,99707
2018-04-27T07:57:09.313Z,99711
2018-04-27T07:59:38.185Z,99703
2018-04-27T08:02:06.333Z,99706
2018-04-27T08:04:34.536Z,99703
2018-04-27T08:07:02.638Z,99712
2018-04-27T08:09:31.545Z,99706
2018-04-27T08:11:59.730Z,99707
2018-04-27T08:14:27.894Z,99708
2018-04-27T08:16:56.753Z,99707
2018-04-27T08:19:24.880Z,99706
2018-04-27T08:21:53.008Z,99711
2018-04-27T08:24:21.173Z,99705
2018-04-27T08:26:49.279Z,99710
2018-04-27T08:29:18.144Z,99703
2018-04-27T08:31:46.386Z,99694
2018-04-27T08:34:14.547Z,99701
2018-04-27T08:36:42.671Z,99699
2018-04-27T08:39:10.780Z,99701
2018-04-27T08:41:38.906Z,99705
2018-04-27T08:44:07.017Z,99691
2018-04-27T08:46:35.145Z,99694
2018-04-27T08:49:03.307Z,99692
2018-04-27T08:51:32.200Z,99689
2018-04-27T08:54:01.093Z,99687
2018-04-27T08:56:29.984Z,99685
2018-04-27T08:58:58.868Z,99682
2018-04-27T09:01:26.992Z,99668
2018-04-27T09:03:55.174Z,99677
2018-04-27T09:06:23.332Z,99676
2018-04-27T09:08:51.413Z,99669
2018-04-27T09:11:19.537Z,99661
2018-04-27T09:13:47.658Z,99668
2018-04-27T09:16:16.637Z,99664
2018-04-27T09:18:44.668Z,99660
2018-04-27T09:21:12.933Z,99653
2018-04-27T09:23:41.071Z,99649
2018-04-27T09:26:09.952Z,99657
2018-04-27T09:28:38.828Z,99654
2018-04-27T09:31:06.944Z,99651
2018-04-27T09:33:35.826Z,99647
2018-04-27T09:36:03.954Z,99648
2018-04-27T09:38:32.075Z,99640
2018-04-27T09:41:00.198Z,99635
2018-04-27T09:43:28.317Z,99640
2018-04-27T09:45:56.447Z,99636
2018-04-27T09:48:24.550Z,99632
2018-04-27T09:50:52.669Z,99627
2018-04-27T09:53:21.602Z,99624
2018-04-27T09:55:49.710Z,99616
2018-04-27T09:58:17.830Z,99611
2018-04-27T10:00:46.742Z,99604
2018-04-27T10:03:14.862Z,99602
2018-04-27T10:05:42.968Z,99600
2018-04-27T10:08:11.108Z,99592
2018-04-27T10:10:39.230Z,99588
2018-04-27T10:13:08.126Z,99578
2018-04-27T10:15:37.061Z,99570
2018-04-27T10:18:05.193Z,99563
2018-04-27T10:20:34.091Z,99568
2018-04-27T10:23:02.214Z,99553
2018-04-27T10:25:30.308Z,99560
2018-04-27T10:27:58.437Z,99546
2018-04-27T10:30:27.359Z,99551
2018-04-27T10:32:55.478Z,99546
2018-04-27T10:35:23.573Z,99547
2018-04-27T10:37:52.461Z,99542
2018-04-27T10:40:20.582Z,99537
2018-04-27T10:42:48.695Z,99530
2018-04-27T10:45:16.813Z,99521
2018-04-27T10:47:45.755Z,99517
2018-04-27T10:50:13.946Z,99521
2018-04-27T10:52:42.781Z,99507
2018-04-27T10:55:11.657Z,99493
2018-04-27T10:57:40.552Z,99495
2018-04-27T11:00:09.715Z,99496
2018-04-27T11:02:37.970Z,99491
2018-04-27T11:05:06.078Z,99476
2018-04-27T11:07:34.199Z,99471
2018-04-27T11:10:02.311Z,99470
2018-04-27T11:12:30.440Z,99471
2018-04-27T11:14:58.563Z,99465
2018-04-27T11:17:26.709Z,99463
2018-04-27T11:19:55.587Z,99467
2018-04-27T11:22:23.821Z,99466
2018-04-27T11:24:51.926Z,99459
2018-04-27T11:27:20.071Z,99461
2018-04-27T11:29:48.574Z,99463
2018-04-27T11:32:16.682Z,99463
2018-04-27T11:34:45.633Z,99453
2018-04-27T11:37:13.739Z,99449
2018-04-27T11:39:41.866Z,99449
2018-04-27T11:42:09.983Z,99445
2018-04-27T11:44:38.142Z,99441
2018-04-27T11:47:06.245Z,99438
2018-04-27T11:49:34.362Z,99435
2018-04-27T11:52:03.231Z,99430
2018-04-27T11:54:31.358Z,99430
2018-04-27T11:56:59.534Z,99427
2018-04-27T11:59:27.664Z,99413
2018-04-27T12:01:55.890Z,99409
2018-04-27T12:04:24.010Z,99411
2018-04-27T12:06:52.128Z,99399
2018-04-27T12:09:21.021Z,99402
2018-04-27T12:11:50.017Z,99407
2018-04-27T12:14:18.914Z,99398
2018-04-27T12:16:47.795Z,99408
2018-04-27T12:19:16.855Z,99415
2018-04-27T12:21:44.966Z,99410
2018-04-27T12:24:13.853Z,99405
2018-04-27T12:26:42.746Z,99406
2018-04-27T12:29:10.868Z,99403
2018-04-27T12:31:39.097Z,99408
2018-04-27T12:34:07.184Z,99398
2018-04-27T12:36:36.070Z,99400
2018-04-27T12:39:04.980Z,99390
2018-04-27T12:41:33.856Z,99390
2018-04-27T12:44:01.976Z,99402
2018-04-27T12:46:30.100Z,99392
2018-04-27T12:48:58.280Z,99387
2018-04-27T12:51:26.392Z,99379
2018-04-27T12:53:55.269Z,99371
2018-04-27T12:56:24.128Z,99369
2018-04-27T12:58:52.268Z,99380
2018-04-27T13:01:20.386Z,99374
2018-04-27T13:03:48.510Z,99368
2018-04-27T13:06:17.388Z,99362
2018-04-27T13:08:45.528Z,99357
2018-04-27T13:11:13.657Z,99345
2018-04-27T13:13:42.553Z,99347
2018-04-27T13:16:11.443Z,99340
2018-04-27T13:18:39.665Z,99340
2018-04-27T13:21:07.844Z,99345
2018-04-27T13:23:35.953Z,99345
2018-04-27T13:26:04.076Z,99337
2018-04-27T13:28:33.818Z,99332
2018-04-27T13:31:01.963Z,99337
2018-04-27T13:33:30.855Z,99338
2018-04-27T13:35:59.737Z,99331
2018-04-27T13:38:28.610Z,99314
2018-04-27T13:40:56.753Z,99318
2018-04-27T13:43:24.866Z,99329
2018-04-27T13:45:52.982Z,99322
2018-04-27T13:48:21.901Z,99319
2018-04-27T13:50:50.030Z,99315
2018-04-27T13:53:18.952Z,99300
2018-04-27T13:55:47.098Z,99291
2018-04-27T13:58:15.243Z,99295
2018-04-27T14:00:43.374Z,99292
2018-04-27T14:03:12.263Z,99281
2018-04-27T14:05:41.184Z,99277
2018-04-27T14:08:09.303Z,99269
2018-04-27T14:10:37.426Z,99261
2018-04-27T14:13:06.380Z,99257
2018-04-27T14:15:34.507Z,99258
2018-04-27T14:18:03.431Z,99258
2018-04-27T14:20:31.573Z,99250
2018-04-27T14:23:01.289Z,99238
2018-04-27T14:25:29.413Z,99243
2018-04-27T14:27:57.536Z,99248
2018-04-27T14:30:26.447Z,99237
2018-04-27T14:32:54.570Z,99239
2018-04-27T14:35:22.680Z,99222
2018-04-27T14:37:51.595Z,99230
2018-04-27T14:40:19.710Z,99236
2018-04-27T14:42:47.875Z,99232
2018-04-27T14:45:15.992Z,99226
2018-04-27T14:47:44.149Z,99237
2018-04-27T14:50:12.271Z,99228
2018-04-27T14:52:40.439Z,99228
2018-04-27T14:55:09.306Z,99221
2018-04-27T14:57:37.453Z,99227
2018-04-27T15:00:05.581Z,99223
2018-04-27T15:02:34.469Z,99228
2018-04-27T15:05:02.586Z,99223
2018-04-27T15:07:30.729Z,99213
2018-04-27T15:09:58.849Z,99207
2018-04-27T15:12:27.128Z,99194
2018-04-27T15:14:55.242Z,99191
2018-04-27T15:17:23.359Z,99201
2018-04-27T15:19:52.288Z,99197
2018-04-27T15:22:20.543Z,99204
2018-04-27T15:24:49.605Z,99198
2018-04-27T15:27:17.730Z,99198
2018-04-27T15:29:45.871Z,99204
2018-04-27T15:32:15.337Z,99188
2018-04-27T15:34:43.567Z,99185
2018-04-27T15:37:12.458Z,99184
2018-04-27T15:39:40.629Z,99180
2018-04-27T15:42:08.865Z,99175
2018-04-27T15:44:38.523Z,99174
2018-04-27T15:47:06.723Z,99173
2018-04-27T15:49:35.826Z,99174
2018-04-27T15:52:04.908Z,99175
2018-04-27T15:54:33.803Z,99166
2018-04-27T15:57:01.916Z,99163
2018-04-27T15:59:30.033Z,99157
2018-04-27T16:01:58.164Z,99150
2018-04-27T16:04:26.304Z,99148
2018-04-27T16:06:54.424Z,99140
2018-04-27T16:09:22.581Z,99143
2018-04-27T16:11:50.689Z,99138
2018-04-27T16:14:18.831Z,99132
2018-04-27T16:16:47.712Z,99129
2018-04-27T16:19:16.651Z,99116
2018-04-27T16:21:44.782Z,99115
2018-04-27T16:24:12.901Z,99109
2018-04-27T16:26:41.029Z,99101
2018-04-27T16:29:09.146Z,99090
2018-04-27T16:31:38.127Z,99088
2018-04-27T16:34:07.031Z,99097
2018-04-27T16:36:35.912Z,99095
2018-04-27T16:39:04.808Z,99088
2018-04-27T16:41:33.679Z,99095
2018-04-27T16:44:01.795Z,99088
2018-04-27T16:46:30.705Z,99091
2018-04-27T16:48:58.822Z,99084
2018-04-27T16:51:26.951Z,99095
2018-04-27T16:53:55.070Z,99093
2018-04-27T16:56:23.214Z,99084
2018-04-27T16:58:51.437Z,99084
2018-04-27T17:01:19.557Z,99089
2018-04-27T17:03:48.473Z,99083
2018-04-27T17:06:16.579Z,99082
2018-04-27T17:08:44.752Z,99080
2018-04-27T17:11:12.884Z,99072
2018-04-27T17:13:41.768Z,99070
2018-04-27T17:16:10.677Z,99076
2018-04-27T17:18:39.542Z,99073
2018-04-27T17:21:07.675Z,99067
2018-04-27T17:23:35.802Z,99074
2018-04-27T17:26:03.991Z,99057
2018-04-27T17:28:32.915Z,99062
2018-04-27T17:31:01.864Z,99056
2018-04-27T17:33:29.985Z,99055
2018-04-27T17:35:58.093Z,99061
2018-04-27T17:38:26.195Z,99051
2018-04-27T17:40:54.322Z,99053
2018-04-27T17:43:22.546Z,99047
2018-04-27T17:45:50.752Z,99054
2018-04-27T17:48:18.822Z,99051
2018-04-27T17:50:47.721Z,99062
2018-04-27T17:53:15.886Z,99057
2018-04-27T17:55:44.035Z,99042
2018-04-27T17:58:12.144Z,99056
2018-04-27T18:00:40.274Z,99053
2018-04-27T18:03:08.393Z,99051
2018-04-27T18:05:36.530Z,99052
2018-04-27T18:08:04.638Z,99056
2018-04-27T18:10:32.782Z,99053
2018-04-27T18:13:00.887Z,99050
2018-04-27T18:15:29.030Z,99041
2018-04-27T18:17:57.143Z,99042
2018-04-27T18:20:25.298Z,99062
2018-04-27T18:22:53.583Z,99060
2018-04-27T18:25:22.436Z,99057
2018-04-27T18:27:51.402Z,99064
2018-04-27T18:30:19.492Z,99059
2018-04-27T18:32:48.411Z,99054
2018-04-27T18:35:16.619Z,99056
2018-04-27T18:37:44.739Z,99063
2018-04-27T18:40:12.861Z,99065
2018-04-27T18:42:41.059Z,99068
2018-04-27T18:45:09.216Z,99068
2018-04-27T18:47:37.375Z,99059
2018-04-27T18:50:05.539Z,99066
2018-04-27T18:52:34.457Z,99068
2018-04-27T18:55:02.624Z,99075
2018-04-27T18:57:30.783Z,99076
2018-04-27T18:59:58.954Z,99068
2018-04-27T19:02:27.134Z,99076
2018-04-27T19:04:55.265Z,99070
2018-04-27T19:07:23.475Z,99072
2018-04-27T19:09:51.614Z,99063
2018-04-27T19:12:19.781Z,99073
2018-04-27T19:14:47.904Z,99074
2018-04-27T19:17:16.040Z,99072
2018-04-27T19:19:44.170Z,99067
2018-04-27T19:22:13.003Z,99061
2018-04-27T19:24:44.053Z,99062
2018-04-27T19:27:12.164Z,99067
2018-04-27T19:29:40.288Z,99066
2018-04-27T19:32:09.184Z,99065
2018-04-27T19:34:38.059Z,99064
2018-04-27T19:37:06.198Z,99064
2018-04-27T19:39:34.363Z,99061
2018-04-27T19:42:02.489Z,99055
2018-04-27T19:44:31.357Z,99061
2018-04-27T19:47:00.475Z,99062
2018-04-27T19:49:28.596Z,99057
2018-04-27T19:51:56.710Z,99054
2018-04-27T19:54:24.842Z,99055
2018-04-27T19:56:58.518Z,99051
2018-04-27T19:59:26.641Z,99052
2018-04-27T20:01:54.750Z,99052
2018-04-27T20:04:22.894Z,99053
2018-04-27T20:06:51.016Z,99048
2018-04-27T20:09:19.160Z,99041
2018-04-27T20:11:47.289Z,99043
2018-04-27T20:14:39.135Z,99040
2018-04-27T20:17:07.268Z,99042
2018-04-27T20:19:42.912Z,99039
2018-04-27T20:22:25.578Z,99031
2018-04-27T20:24:58.303Z,99023
2018-04-27T20:27:38.621Z,99025
2018-04-27T20:30:21.643Z,99023
2018-04-27T20:32:49.769Z,99029
2018-04-27T20:35:18.774Z,99024
2018-04-27T20:37:51.523Z,99020
2018-04-27T20:40:19.705Z,99017
2018-04-27T20:42:47.826Z,99019
2018-04-27T20:45:26.529Z,99012
2018-04-27T20:47:54.644Z,99015
2018-04-27T20:50:26.393Z,99010
2018-04-27T20:52:59.011Z,99009
2018-04-27T20:55:27.811Z,99011
2018-04-27T20:57:55.953Z,99005
2018-04-27T21:00:25.654Z,99013
2018-04-27T21:02:54.533Z,99015
2018-04-27T21:05:24.248Z,99010
2018-04-27T21:07:53.173Z,99016
2018-04-27T21:10:21.285Z,99009
2018-04-27T21:12:57.971Z,99010
2018-04-27T21:15:26.090Z,99015
2018-04-27T21:17:54.226Z,99008
2018-04-27T21:20:22.344Z,99005
2018-04-27T21:22:50.449Z,99016
2018-04-27T21:25:29.898Z,99017
2018-04-27T21:27:58.005Z,99009
2018-04-27T21:30:26.129Z,99011
2018-04-27T21:32:59.945Z,99015
2018-04-27T21:35:34.985Z,99017
2018-04-27T21:41:37.744Z,99005
2018-04-27T21:44:10.346Z,98998
2018-04-27T21:46:39.272Z,99005
2018-04-27T21:49:10.053Z,99002
2018-04-27T21:51:39.055Z,99002
2018-04-27T21:54:18.978Z,98992
2018-04-27T21:57:07.362Z,98996
2018-04-27T21:59:55.935Z,99001
2018-04-27T22:06:07.913Z,98994
2018-04-27T22:08:45.919Z,98990
2018-04-27T22:11:25.500Z,98983
2018-04-27T22:13:53.615Z,98996
2018-04-27T22:16:29.916Z,98991
2018-04-27T22:18:58.839Z,98981
2018-04-27T22:21:26.946Z,98986
2018-04-27T22:24:09.107Z,98982
2018-04-27T22:26:43.567Z,98987
2018-04-27T22:29:29.109Z,98987
2018-04-27T22:32:00.125Z,98979
2018-04-27T22:34:30.994Z,98978
2018-04-27T22:36:59.097Z,98980
2018-04-27T22:39:40.877Z,98969
2018-04-27T22:42:20.681Z,98985
2018-04-27T22:44:56.363Z,98983
2018-04-27T22:50:57.325Z,98970
2018-04-27T22:53:29.934Z,98971
2018-04-27T22:55:58.848Z,98983
2018-04-27T22:58:26.953Z,98978
2018-04-27T23:01:06.467Z,98978
2018-04-27T23:03:36.410Z,98975
2018-04-27T23:06:07.352Z,98973
2018-04-27T23:08:35.468Z,98971
2018-04-27T23:11:25.046Z,98968
2018-04-27T23:16:58.533Z,98963
2018-04-27T23:19:27.580Z,98968
2018-04-27T23:22:01.464Z,98957
2018-04-27T23:24:37.832Z,98959
2018-04-27T23:27:05.971Z,98957
2018-04-27T23:29:34.078Z,98959
2018-04-27T23:32:02.981Z,98974
2018-04-27T23:34:31.865Z,98968
2018-04-27T23:37:00.745Z,98966
2018-04-27T23:39:28.852Z,98964
2018-04-27T23:41:56.975Z,98968
2018-04-27T23:44:25.109Z,98965
2018-04-27T23:46:53.231Z,98958
2018-04-27T23:49:21.413Z,98960
2018-04-27T23:51:50.373Z,98960
2018-04-27T23:54:18.517Z,98951
2018-04-27T23:56:51.022Z,98952
2018-04-27T23:59:20.627Z,98956
